sensor_id;sensor_type;location;lat;lon;timestamp;P1;durP1;ratioP1;P2;durP2;ratioP2
11893;SDS011;6006;49.696;8.662;2022-09-09T00:00:19;1.60;;;1.20;;
11893;SDS011;6006;49.696;8.662;2022-09-09T00:02:50;3.60;;;1.00;;
11893;SDS011;6006;49.696;8.662;2022-09-09T00:05:29;4.03;;;1.07;;
11893;SDS011;6006;49.696;8.662;2022-09-09T00:08:00;4.00;;;1.23;;
11893;SDS011;6006;49.696;8.662;2022-09-09T00:10:31;2.20;;;1.20;;
11893;SDS011;6006;49.696;8.662;2022-09-09T00:13:08;1.90;;;1.23;;
11893;SDS011;6006;49.696;8.662;2022-09-09T00:15:44;3.90;;;1.30;;
11893;SDS011;6006;49.696;8.662;2022-09-09T00:18:17;3.47;;;1.00;;
11893;SDS011;6006;49.696;8.662;2022-09-09T00:20:52;1.07;;;1.07;;
11893;SDS011;6006;49.696;8.662;2022-09-09T00:23:25;3.60;;;1.40;;
11893;SDS011;6006;49.696;8.662;2022-09-09T00:25:59;4.63;;;1.20;;
11893;SDS011;6006;49.696;8.662;2022-09-09T00:28:36;2.77;;;1.40;;
11893;SDS011;6006;49.696;8.662;2022-09-09T00:31:11;0.90;;;0.90;;
11893;SDS011;6006;49.696;8.662;2022-09-09T00:33:43;2.97;;;1.37;;
11893;SDS011;6006;49.696;8.662;2022-09-09T00:36:12;1.57;;;1.30;;
11893;SDS011;6006;49.696;8.662;2022-09-09T00:38:42;6.07;;;1.33;;
11893;SDS011;6006;49.696;8.662;2022-09-09T00:41:14;3.57;;;1.40;;
11893;SDS011;6006;49.696;8.662;2022-09-09T00:43:55;1.40;;;1.30;;
11893;SDS011;6006;49.696;8.662;2022-09-09T00:46:31;5.10;;;1.50;;
11893;SDS011;6006;49.696;8.662;2022-09-09T00:49:13;2.30;;;1.30;;
11893;SDS011;6006;49.696;8.662;2022-09-09T00:51:51;1.70;;;1.03;;
11893;SDS011;6006;49.696;8.662;2022-09-09T00:54:31;2.20;;;1.40;;
11893;SDS011;6006;49.696;8.662;2022-09-09T00:57:13;1.40;;;1.17;;
11893;SDS011;6006;49.696;8.662;2022-09-09T00:59:51;5.60;;;1.50;;
11893;SDS011;6006;49.696;8.662;2022-09-09T01:02:26;2.30;;;1.27;;
11893;SDS011;6006;49.696;8.662;2022-09-09T01:04:55;2.57;;;1.23;;
11893;SDS011;6006;49.696;8.662;2022-09-09T01:07:36;1.93;;;1.20;;
11893;SDS011;6006;49.696;8.662;2022-09-09T01:10:05;2.63;;;1.30;;
11893;SDS011;6006;49.696;8.662;2022-09-09T01:12:38;4.33;;;1.47;;
11893;SDS011;6006;49.696;8.662;2022-09-09T01:15:11;2.63;;;1.20;;
11893;SDS011;6006;49.696;8.662;2022-09-09T01:17:50;3.13;;;1.07;;
11893;SDS011;6006;49.696;8.662;2022-09-09T01:20:24;1.90;;;1.40;;
11893;SDS011;6006;49.696;8.662;2022-09-09T01:22:57;3.37;;;1.17;;
11893;SDS011;6006;49.696;8.662;2022-09-09T01:28:46;1.47;;;1.13;;
11893;SDS011;6006;49.696;8.662;2022-09-09T01:31:17;2.00;;;0.90;;
11893;SDS011;6006;49.696;8.662;2022-09-09T01:33:46;4.30;;;1.40;;
11893;SDS011;6006;49.696;8.662;2022-09-09T01:36:16;2.60;;;1.20;;
11893;SDS011;6006;49.696;8.662;2022-09-09T01:38:50;1.07;;;1.00;;
11893;SDS011;6006;49.696;8.662;2022-09-09T01:41:17;2.53;;;0.97;;
11893;SDS011;6006;49.696;8.662;2022-09-09T01:43:45;2.30;;;1.20;;
11893;SDS011;6006;49.696;8.662;2022-09-09T01:46:13;2.63;;;1.10;;
11893;SDS011;6006;49.696;8.662;2022-09-09T01:48:40;2.90;;;1.23;;
11893;SDS011;6006;49.696;8.662;2022-09-09T01:51:08;2.67;;;1.20;;
11893;SDS011;6006;49.696;8.662;2022-09-09T01:53:36;4.93;;;1.50;;
11893;SDS011;6006;49.696;8.662;2022-09-09T01:56:07;2.00;;;1.10;;
11893;SDS011;6006;49.696;8.662;2022-09-09T01:58:45;2.20;;;1.20;;
11893;SDS011;6006;49.696;8.662;2022-09-09T02:01:24;2.67;;;1.20;;
11893;SDS011;6006;49.696;8.662;2022-09-09T02:04:01;2.60;;;1.40;;
11893;SDS011;6006;49.696;8.662;2022-09-09T02:06:34;1.70;;;1.00;;
11893;SDS011;6006;49.696;8.662;2022-09-09T02:09:03;2.50;;;1.00;;
11893;SDS011;6006;49.696;8.662;2022-09-09T02:11:32;2.13;;;0.97;;
11893;SDS011;6006;49.696;8.662;2022-09-09T02:14:02;1.40;;;1.10;;
11893;SDS011;6006;49.696;8.662;2022-09-09T02:16:33;2.20;;;1.20;;
11893;SDS011;6006;49.696;8.662;2022-09-09T02:19:06;4.37;;;1.40;;
11893;SDS011;6006;49.696;8.662;2022-09-09T02:21:38;2.93;;;1.20;;
11893;SDS011;6006;49.696;8.662;2022-09-09T02:24:08;1.47;;;1.00;;
11893;SDS011;6006;49.696;8.662;2022-09-09T02:26:38;1.17;;;0.93;;
11893;SDS011;6006;49.696;8.662;2022-09-09T02:29:09;1.80;;;1.00;;
11893;SDS011;6006;49.696;8.662;2022-09-09T02:31:41;2.37;;;1.10;;
11893;SDS011;6006;49.696;8.662;2022-09-09T02:34:09;1.50;;;1.20;;
11893;SDS011;6006;49.696;8.662;2022-09-09T02:36:39;1.90;;;1.10;;
11893;SDS011;6006;49.696;8.662;2022-09-09T02:39:08;2.10;;;0.87;;
11893;SDS011;6006;49.696;8.662;2022-09-09T02:41:37;2.73;;;1.37;;
11893;SDS011;6006;49.696;8.662;2022-09-09T02:44:10;1.60;;;1.30;;
11893;SDS011;6006;49.696;8.662;2022-09-09T02:46:47;1.80;;;1.10;;
11893;SDS011;6006;49.696;8.662;2022-09-09T02:49:28;2.13;;;1.13;;
11893;SDS011;6006;49.696;8.662;2022-09-09T02:52:07;1.87;;;0.90;;
11893;SDS011;6006;49.696;8.662;2022-09-09T02:54:40;3.23;;;1.17;;
11893;SDS011;6006;49.696;8.662;2022-09-09T02:57:10;3.30;;;1.60;;
11893;SDS011;6006;49.696;8.662;2022-09-09T02:59:40;4.13;;;0.90;;
11893;SDS011;6006;49.696;8.662;2022-09-09T03:02:07;3.00;;;1.07;;
11893;SDS011;6006;49.696;8.662;2022-09-09T03:04:35;0.97;;;0.80;;
11893;SDS011;6006;49.696;8.662;2022-09-09T03:07:02;1.53;;;1.00;;
11893;SDS011;6006;49.696;8.662;2022-09-09T03:09:29;2.97;;;0.93;;
11893;SDS011;6006;49.696;8.662;2022-09-09T03:11:57;3.17;;;1.13;;
11893;SDS011;6006;49.696;8.662;2022-09-09T03:14:25;2.60;;;1.00;;
11893;SDS011;6006;49.696;8.662;2022-09-09T03:16:54;3.57;;;1.33;;
11893;SDS011;6006;49.696;8.662;2022-09-09T03:19:21;1.77;;;1.23;;
11893;SDS011;6006;49.696;8.662;2022-09-09T03:21:48;5.30;;;1.37;;
11893;SDS011;6006;49.696;8.662;2022-09-09T03:24:15;3.03;;;1.10;;
11893;SDS011;6006;49.696;8.662;2022-09-09T03:26:42;1.10;;;1.07;;
11893;SDS011;6006;49.696;8.662;2022-09-09T03:29:10;0.80;;;0.80;;
11893;SDS011;6006;49.696;8.662;2022-09-09T03:31:38;0.97;;;0.97;;
11893;SDS011;6006;49.696;8.662;2022-09-09T03:34:07;2.23;;;1.10;;
11893;SDS011;6006;49.696;8.662;2022-09-09T03:36:34;2.73;;;1.00;;
11893;SDS011;6006;49.696;8.662;2022-09-09T03:39:00;1.77;;;1.10;;
11893;SDS011;6006;49.696;8.662;2022-09-09T03:41:29;4.50;;;1.30;;
11893;SDS011;6006;49.696;8.662;2022-09-09T03:43:56;1.37;;;1.27;;
11893;SDS011;6006;49.696;8.662;2022-09-09T03:46:24;2.50;;;1.13;;
11893;SDS011;6006;49.696;8.662;2022-09-09T03:48:51;2.67;;;1.40;;
11893;SDS011;6006;49.696;8.662;2022-09-09T03:51:19;1.93;;;1.30;;
11893;SDS011;6006;49.696;8.662;2022-09-09T03:53:47;2.00;;;1.10;;
11893;SDS011;6006;49.696;8.662;2022-09-09T03:56:14;1.37;;;1.10;;
11893;SDS011;6006;49.696;8.662;2022-09-09T03:58:40;0.90;;;0.90;;
11893;SDS011;6006;49.696;8.662;2022-09-09T04:01:08;4.30;;;1.00;;
11893;SDS011;6006;49.696;8.662;2022-09-09T04:03:38;2.50;;;1.27;;
11893;SDS011;6006;49.696;8.662;2022-09-09T04:06:05;3.07;;;1.13;;
11893;SDS011;6006;49.696;8.662;2022-09-09T04:08:35;1.43;;;1.30;;
11893;SDS011;6006;49.696;8.662;2022-09-09T04:11:03;1.40;;;1.30;;
11893;SDS011;6006;49.696;8.662;2022-09-09T04:13:31;3.63;;;1.13;;
11893;SDS011;6006;49.696;8.662;2022-09-09T04:15:59;2.50;;;1.33;;
11893;SDS011;6006;49.696;8.662;2022-09-09T04:18:28;2.77;;;1.13;;
11893;SDS011;6006;49.696;8.662;2022-09-09T04:20:55;4.40;;;1.23;;
11893;SDS011;6006;49.696;8.662;2022-09-09T04:23:23;2.47;;;1.10;;
11893;SDS011;6006;49.696;8.662;2022-09-09T04:25:53;2.43;;;1.33;;
11893;SDS011;6006;49.696;8.662;2022-09-09T04:28:22;3.83;;;1.20;;
11893;SDS011;6006;49.696;8.662;2022-09-09T04:30:50;2.17;;;1.67;;
11893;SDS011;6006;49.696;8.662;2022-09-09T04:33:17;2.20;;;1.40;;
11893;SDS011;6006;49.696;8.662;2022-09-09T04:35:45;2.00;;;1.20;;
11893;SDS011;6006;49.696;8.662;2022-09-09T04:38:13;4.53;;;1.07;;
11893;SDS011;6006;49.696;8.662;2022-09-09T04:40:42;2.83;;;0.90;;
11893;SDS011;6006;49.696;8.662;2022-09-09T04:43:10;6.83;;;1.40;;
11893;SDS011;6006;49.696;8.662;2022-09-09T04:45:37;6.03;;;0.93;;
11893;SDS011;6006;49.696;8.662;2022-09-09T04:48:05;6.00;;;0.80;;
11893;SDS011;6006;49.696;8.662;2022-09-09T04:50:32;15.07;;;1.50;;
11893;SDS011;6006;49.696;8.662;2022-09-09T04:53:00;2.37;;;0.80;;
11893;SDS011;6006;49.696;8.662;2022-09-09T04:55:27;1.60;;;0.77;;
11893;SDS011;6006;49.696;8.662;2022-09-09T04:57:55;0.70;;;0.60;;
11893;SDS011;6006;49.696;8.662;2022-09-09T05:00:24;0.97;;;0.40;;
11893;SDS011;6006;49.696;8.662;2022-09-09T05:02:51;3.97;;;0.83;;
11893;SDS011;6006;49.696;8.662;2022-09-09T05:05:18;1.33;;;0.80;;
11893;SDS011;6006;49.696;8.662;2022-09-09T05:07:44;2.37;;;0.80;;
11893;SDS011;6006;49.696;8.662;2022-09-09T05:10:12;2.23;;;0.70;;
11893;SDS011;6006;49.696;8.662;2022-09-09T05:12:41;3.80;;;0.70;;
11893;SDS011;6006;49.696;8.662;2022-09-09T05:15:08;0.70;;;0.70;;
11893;SDS011;6006;49.696;8.662;2022-09-09T05:17:38;2.53;;;0.70;;
11893;SDS011;6006;49.696;8.662;2022-09-09T05:20:05;2.17;;;0.60;;
11893;SDS011;6006;49.696;8.662;2022-09-09T05:22:32;1.07;;;1.03;;
11893;SDS011;6006;49.696;8.662;2022-09-09T05:24:59;0.83;;;0.67;;
11893;SDS011;6006;49.696;8.662;2022-09-09T05:27:26;0.97;;;0.53;;
11893;SDS011;6006;49.696;8.662;2022-09-09T05:29:53;1.50;;;0.80;;
11893;SDS011;6006;49.696;8.662;2022-09-09T05:32:20;0.57;;;0.57;;
11893;SDS011;6006;49.696;8.662;2022-09-09T05:34:48;1.73;;;0.63;;
11893;SDS011;6006;49.696;8.662;2022-09-09T05:37:15;3.90;;;1.00;;
11893;SDS011;6006;49.696;8.662;2022-09-09T05:39:43;2.73;;;0.50;;
11893;SDS011;6006;49.696;8.662;2022-09-09T05:42:10;2.87;;;0.50;;
11893;SDS011;6006;49.696;8.662;2022-09-09T05:44:37;0.97;;;0.63;;
11893;SDS011;6006;49.696;8.662;2022-09-09T05:47:04;1.40;;;0.60;;
11893;SDS011;6006;49.696;8.662;2022-09-09T05:49:33;0.50;;;0.50;;
11893;SDS011;6006;49.696;8.662;2022-09-09T05:52:01;1.90;;;0.60;;
11893;SDS011;6006;49.696;8.662;2022-09-09T05:54:28;0.60;;;0.60;;
11893;SDS011;6006;49.696;8.662;2022-09-09T05:56:55;1.23;;;0.47;;
11893;SDS011;6006;49.696;8.662;2022-09-09T05:59:24;2.77;;;0.50;;
11893;SDS011;6006;49.696;8.662;2022-09-09T06:01:51;0.93;;;0.50;;
11893;SDS011;6006;49.696;8.662;2022-09-09T06:04:18;1.07;;;0.63;;
11893;SDS011;6006;49.696;8.662;2022-09-09T06:06:49;0.87;;;0.50;;
11893;SDS011;6006;49.696;8.662;2022-09-09T06:09:18;1.23;;;0.40;;
11893;SDS011;6006;49.696;8.662;2022-09-09T06:11:45;0.70;;;0.60;;
11893;SDS011;6006;49.696;8.662;2022-09-09T06:14:11;1.07;;;0.60;;
11893;SDS011;6006;49.696;8.662;2022-09-09T06:16:38;1.40;;;0.50;;
11893;SDS011;6006;49.696;8.662;2022-09-09T06:19:07;0.93;;;0.40;;
11893;SDS011;6006;49.696;8.662;2022-09-09T06:21:34;2.50;;;0.77;;
11893;SDS011;6006;49.696;8.662;2022-09-09T06:24:03;1.27;;;0.63;;
11893;SDS011;6006;49.696;8.662;2022-09-09T06:26:32;2.93;;;0.50;;
11893;SDS011;6006;49.696;8.662;2022-09-09T06:29:00;0.30;;;0.25;;
11893;SDS011;6006;49.696;8.662;2022-09-09T06:31:29;0.87;;;0.50;;
11893;SDS011;6006;49.696;8.662;2022-09-09T06:33:59;0.80;;;0.77;;
11893;SDS011;6006;49.696;8.662;2022-09-09T06:36:26;0.80;;;0.70;;
11893;SDS011;6006;49.696;8.662;2022-09-09T06:38:54;2.27;;;0.70;;
11893;SDS011;6006;49.696;8.662;2022-09-09T06:41:23;0.53;;;0.53;;
11893;SDS011;6006;49.696;8.662;2022-09-09T06:43:52;2.93;;;0.63;;
11893;SDS011;6006;49.696;8.662;2022-09-09T06:46:21;2.33;;;0.77;;
11893;SDS011;6006;49.696;8.662;2022-09-09T06:48:52;1.40;;;0.40;;
11893;SDS011;6006;49.696;8.662;2022-09-09T06:51:21;1.00;;;0.57;;
11893;SDS011;6006;49.696;8.662;2022-09-09T06:53:49;0.63;;;0.35;;
11893;SDS011;6006;49.696;8.662;2022-09-09T06:56:19;0.45;;;0.45;;
11893;SDS011;6006;49.696;8.662;2022-09-09T06:58:48;1.83;;;0.60;;
11893;SDS011;6006;49.696;8.662;2022-09-09T07:01:18;2.05;;;0.70;;
11893;SDS011;6006;49.696;8.662;2022-09-09T07:03:47;9.57;;;0.82;;
11893;SDS011;6006;49.696;8.662;2022-09-09T07:06:15;0.40;;;0.40;;
11893;SDS011;6006;49.696;8.662;2022-09-09T07:08:47;2.03;;;0.40;;
11893;SDS011;6006;49.696;8.662;2022-09-09T07:11:15;1.05;;;0.40;;
11893;SDS011;6006;49.696;8.662;2022-09-09T07:13:42;0.43;;;0.40;;
11893;SDS011;6006;49.696;8.662;2022-09-09T07:16:10;1.67;;;0.60;;
11893;SDS011;6006;49.696;8.662;2022-09-09T07:18:40;1.65;;;0.40;;
11893;SDS011;6006;49.696;8.662;2022-09-09T07:21:07;1.05;;;0.63;;
11893;SDS011;6006;49.696;8.662;2022-09-09T07:23:35;0.88;;;0.77;;
11893;SDS011;6006;49.696;8.662;2022-09-09T07:26:02;2.28;;;0.55;;
11893;SDS011;6006;49.696;8.662;2022-09-09T07:28:29;4.25;;;0.77;;
11893;SDS011;6006;49.696;8.662;2022-09-09T07:30:56;0.70;;;0.68;;
11893;SDS011;6006;49.696;8.662;2022-09-09T07:33:24;0.30;;;0.30;;
11893;SDS011;6006;49.696;8.662;2022-09-09T07:35:53;1.52;;;0.85;;
11893;SDS011;6006;49.696;8.662;2022-09-09T07:38:20;1.60;;;0.75;;
11893;SDS011;6006;49.696;8.662;2022-09-09T07:40:47;4.13;;;0.80;;
11893;SDS011;6006;49.696;8.662;2022-09-09T07:43:14;2.08;;;0.60;;
11893;SDS011;6006;49.696;8.662;2022-09-09T07:45:42;3.25;;;1.02;;
11893;SDS011;6006;49.696;8.662;2022-09-09T07:48:09;3.00;;;0.80;;
11893;SDS011;6006;49.696;8.662;2022-09-09T07:50:36;4.03;;;0.65;;
11893;SDS011;6006;49.696;8.662;2022-09-09T07:53:05;2.20;;;0.77;;
11893;SDS011;6006;49.696;8.662;2022-09-09T07:55:32;0.73;;;0.50;;
11893;SDS011;6006;49.696;8.662;2022-09-09T07:57:59;0.82;;;0.80;;
11893;SDS011;6006;49.696;8.662;2022-09-09T08:00:26;1.17;;;0.55;;
11893;SDS011;6006;49.696;8.662;2022-09-09T08:02:53;1.55;;;0.60;;
11893;SDS011;6006;49.696;8.662;2022-09-09T08:05:20;2.40;;;0.70;;
11893;SDS011;6006;49.696;8.662;2022-09-09T08:07:48;1.33;;;0.70;;
11893;SDS011;6006;49.696;8.662;2022-09-09T08:10:16;4.75;;;0.77;;
11893;SDS011;6006;49.696;8.662;2022-09-09T08:12:43;4.80;;;0.88;;
11893;SDS011;6006;49.696;8.662;2022-09-09T08:15:10;4.82;;;1.42;;
11893;SDS011;6006;49.696;8.662;2022-09-09T08:17:38;3.67;;;1.15;;
11893;SDS011;6006;49.696;8.662;2022-09-09T08:20:05;3.20;;;0.85;;
11893;SDS011;6006;49.696;8.662;2022-09-09T08:22:32;1.23;;;0.80;;
11893;SDS011;6006;49.696;8.662;2022-09-09T08:25:00;2.10;;;0.50;;
11893;SDS011;6006;49.696;8.662;2022-09-09T08:27:28;1.35;;;0.73;;
11893;SDS011;6006;49.696;8.662;2022-09-09T08:29:57;1.65;;;0.73;;
11893;SDS011;6006;49.696;8.662;2022-09-09T08:32:24;1.98;;;0.70;;
11893;SDS011;6006;49.696;8.662;2022-09-09T08:34:51;1.83;;;0.88;;
11893;SDS011;6006;49.696;8.662;2022-09-09T08:37:18;2.42;;;0.77;;
11893;SDS011;6006;49.696;8.662;2022-09-09T08:39:45;2.67;;;0.88;;
11893;SDS011;6006;49.696;8.662;2022-09-09T08:45:34;1.35;;;0.80;;
11893;SDS011;6006;49.696;8.662;2022-09-09T08:51:06;1.17;;;0.63;;
11893;SDS011;6006;49.696;8.662;2022-09-09T08:53:36;2.75;;;0.77;;
11893;SDS011;6006;49.696;8.662;2022-09-09T08:56:09;3.08;;;0.70;;
11893;SDS011;6006;49.696;8.662;2022-09-09T08:58:41;1.40;;;0.60;;
11893;SDS011;6006;49.696;8.662;2022-09-09T09:04:25;3.05;;;0.60;;
11893;SDS011;6006;49.696;8.662;2022-09-09T09:07:05;1.02;;;0.63;;
11893;SDS011;6006;49.696;8.662;2022-09-09T09:09:42;3.03;;;1.00;;
11893;SDS011;6006;49.696;8.662;2022-09-09T09:12:18;2.47;;;0.68;;
11893;SDS011;6006;49.696;8.662;2022-09-09T09:14:47;1.73;;;0.68;;
11893;SDS011;6006;49.696;8.662;2022-09-09T09:17:17;2.95;;;0.50;;
11893;SDS011;6006;49.696;8.662;2022-09-09T09:19:46;1.33;;;0.70;;
11893;SDS011;6006;49.696;8.662;2022-09-09T09:22:16;1.67;;;0.75;;
11893;SDS011;6006;49.696;8.662;2022-09-09T09:24:47;0.73;;;0.55;;
11893;SDS011;6006;49.696;8.662;2022-09-09T09:27:18;2.78;;;0.55;;
11893;SDS011;6006;49.696;8.662;2022-09-09T09:29:54;2.30;;;0.57;;
11893;SDS011;6006;49.696;8.662;2022-09-09T09:32:24;1.40;;;0.60;;
11893;SDS011;6006;49.696;8.662;2022-09-09T09:34:56;4.40;;;0.90;;
11893;SDS011;6006;49.696;8.662;2022-09-09T09:37:30;1.80;;;0.70;;
11893;SDS011;6006;49.696;8.662;2022-09-09T09:40:07;3.55;;;0.60;;
11893;SDS011;6006;49.696;8.662;2022-09-09T09:42:35;5.30;;;0.50;;
11893;SDS011;6006;49.696;8.662;2022-09-09T09:45:14;0.85;;;0.50;;
11893;SDS011;6006;49.696;8.662;2022-09-09T09:47:46;3.13;;;0.70;;
11893;SDS011;6006;49.696;8.662;2022-09-09T09:50:24;5.63;;;0.82;;
11893;SDS011;6006;49.696;8.662;2022-09-09T09:52:55;1.50;;;0.75;;
11893;SDS011;6006;49.696;8.662;2022-09-09T09:55:23;1.67;;;0.60;;
11893;SDS011;6006;49.696;8.662;2022-09-09T09:57:52;0.77;;;0.50;;
11893;SDS011;6006;49.696;8.662;2022-09-09T10:00:20;1.95;;;0.50;;
11893;SDS011;6006;49.696;8.662;2022-09-09T10:02:49;2.38;;;0.50;;
11893;SDS011;6006;49.696;8.662;2022-09-09T10:05:18;1.10;;;0.60;;
11893;SDS011;6006;49.696;8.662;2022-09-09T10:07:46;0.85;;;0.50;;
11893;SDS011;6006;49.696;8.662;2022-09-09T10:10:27;2.05;;;0.40;;
11893;SDS011;6006;49.696;8.662;2022-09-09T10:13:05;1.13;;;0.68;;
11893;SDS011;6006;49.696;8.662;2022-09-09T10:15:39;4.32;;;0.70;;
11893;SDS011;6006;49.696;8.662;2022-09-09T10:18:20;0.68;;;0.35;;
11893;SDS011;6006;49.696;8.662;2022-09-09T10:20:58;4.03;;;0.70;;
11893;SDS011;6006;49.696;8.662;2022-09-09T10:23:36;1.23;;;0.60;;
11893;SDS011;6006;49.696;8.662;2022-09-09T10:26:15;3.42;;;0.93;;
11893;SDS011;6006;49.696;8.662;2022-09-09T10:29:12;0.73;;;0.40;;
11893;SDS011;6006;49.696;8.662;2022-09-09T10:31:52;3.85;;;0.75;;
11893;SDS011;6006;49.696;8.662;2022-09-09T10:34:36;2.25;;;0.73;;
11893;SDS011;6006;49.696;8.662;2022-09-09T10:37:19;2.30;;;1.02;;
11893;SDS011;6006;49.696;8.662;2022-09-09T10:39:59;2.40;;;0.40;;
11893;SDS011;6006;49.696;8.662;2022-09-09T10:42:34;3.58;;;0.73;;
11893;SDS011;6006;49.696;8.662;2022-09-09T10:45:05;2.28;;;0.70;;
11893;SDS011;6006;49.696;8.662;2022-09-09T10:50:42;2.20;;;0.55;;
11893;SDS011;6006;49.696;8.662;2022-09-09T10:53:18;1.13;;;0.40;;
11893;SDS011;6006;49.696;8.662;2022-09-09T10:56:01;1.25;;;0.40;;
11893;SDS011;6006;49.696;8.662;2022-09-09T10:58:34;0.57;;;0.30;;
11893;SDS011;6006;49.696;8.662;2022-09-09T11:01:10;0.73;;;0.25;;
11893;SDS011;6006;49.696;8.662;2022-09-09T11:03:42;1.85;;;0.40;;
11893;SDS011;6006;49.696;8.662;2022-09-09T11:06:17;1.73;;;0.57;;
11893;SDS011;6006;49.696;8.662;2022-09-09T11:08:46;1.13;;;0.30;;
11893;SDS011;6006;49.696;8.662;2022-09-09T11:11:16;2.35;;;0.50;;
11893;SDS011;6006;49.696;8.662;2022-09-09T11:13:47;2.33;;;0.30;;
11893;SDS011;6006;49.696;8.662;2022-09-09T11:16:21;0.75;;;0.35;;
11893;SDS011;6006;49.696;8.662;2022-09-09T11:18:55;1.98;;;0.50;;
11893;SDS011;6006;49.696;8.662;2022-09-09T11:21:29;6.22;;;0.65;;
11893;SDS011;6006;49.696;8.662;2022-09-09T11:24:00;3.42;;;0.63;;
11893;SDS011;6006;49.696;8.662;2022-09-09T11:26:31;1.60;;;0.57;;
11893;SDS011;6006;49.696;8.662;2022-09-09T11:29:10;2.13;;;0.60;;
11893;SDS011;6006;49.696;8.662;2022-09-09T11:32:03;0.95;;;0.50;;
11893;SDS011;6006;49.696;8.662;2022-09-09T11:34:44;2.63;;;0.55;;
11893;SDS011;6006;49.696;8.662;2022-09-09T11:40:17;2.55;;;0.45;;
11893;SDS011;6006;49.696;8.662;2022-09-09T11:42:47;4.93;;;0.98;;
11893;SDS011;6006;49.696;8.662;2022-09-09T11:45:19;4.25;;;0.70;;
11893;SDS011;6006;49.696;8.662;2022-09-09T11:47:51;13.88;;;1.30;;
11893;SDS011;6006;49.696;8.662;2022-09-09T11:53:16;3.20;;;0.70;;
11893;SDS011;6006;49.696;8.662;2022-09-09T11:55:47;1.92;;;1.05;;
11893;SDS011;6006;49.696;8.662;2022-09-09T11:58:26;1.75;;;0.50;;
11893;SDS011;6006;49.696;8.662;2022-09-09T12:00:57;1.65;;;0.60;;
11893;SDS011;6006;49.696;8.662;2022-09-09T12:03:32;3.10;;;0.45;;
11893;SDS011;6006;49.696;8.662;2022-09-09T12:06:11;1.00;;;0.73;;
11893;SDS011;6006;49.696;8.662;2022-09-09T12:08:44;3.58;;;0.50;;
11893;SDS011;6006;49.696;8.662;2022-09-09T12:11:23;2.50;;;0.70;;
11893;SDS011;6006;49.696;8.662;2022-09-09T12:13:54;1.23;;;0.73;;
11893;SDS011;6006;49.696;8.662;2022-09-09T12:16:30;3.38;;;1.00;;
11893;SDS011;6006;49.696;8.662;2022-09-09T12:19:06;2.08;;;0.50;;
11893;SDS011;6006;49.696;8.662;2022-09-09T12:21:43;1.85;;;0.55;;
11893;SDS011;6006;49.696;8.662;2022-09-09T12:24:19;2.78;;;0.60;;
11893;SDS011;6006;49.696;8.662;2022-09-09T12:26:54;1.85;;;0.77;;
11893;SDS011;6006;49.696;8.662;2022-09-09T12:29:27;4.53;;;0.50;;
11893;SDS011;6006;49.696;8.662;2022-09-09T12:32:02;2.03;;;0.60;;
11893;SDS011;6006;49.696;8.662;2022-09-09T12:34:38;1.98;;;0.75;;
11893;SDS011;6006;49.696;8.662;2022-09-09T12:37:08;0.68;;;0.60;;
11893;SDS011;6006;49.696;8.662;2022-09-09T12:39:45;2.90;;;0.52;;
11893;SDS011;6006;49.696;8.662;2022-09-09T12:42:16;3.33;;;0.75;;
11893;SDS011;6006;49.696;8.662;2022-09-09T12:44:50;3.50;;;0.68;;
11893;SDS011;6006;49.696;8.662;2022-09-09T12:47:18;0.73;;;0.63;;
11893;SDS011;6006;49.696;8.662;2022-09-09T12:49:47;0.75;;;0.50;;
11893;SDS011;6006;49.696;8.662;2022-09-09T12:52:17;1.90;;;0.80;;
11893;SDS011;6006;49.696;8.662;2022-09-09T12:54:50;2.80;;;0.75;;
11893;SDS011;6006;49.696;8.662;2022-09-09T12:57:18;2.53;;;0.93;;
11893;SDS011;6006;49.696;8.662;2022-09-09T12:59:48;2.03;;;0.57;;
11893;SDS011;6006;49.696;8.662;2022-09-09T13:02:19;3.13;;;0.75;;
11893;SDS011;6006;49.696;8.662;2022-09-09T13:04:47;0.73;;;0.43;;
11893;SDS011;6006;49.696;8.662;2022-09-09T13:07:16;0.85;;;0.25;;
11893;SDS011;6006;49.696;8.662;2022-09-09T13:09:44;1.20;;;0.40;;
11893;SDS011;6006;49.696;8.662;2022-09-09T13:12:15;2.35;;;0.40;;
11893;SDS011;6006;49.696;8.662;2022-09-09T13:14:45;1.08;;;0.38;;
11893;SDS011;6006;49.696;8.662;2022-09-09T13:17:17;3.15;;;0.30;;
11893;SDS011;6006;49.696;8.662;2022-09-09T13:19:47;0.57;;;0.05;;
11893;SDS011;6006;49.696;8.662;2022-09-09T13:22:20;0.88;;;0.30;;
11893;SDS011;6006;49.696;8.662;2022-09-09T13:24:58;0.25;;;0.10;;
11893;SDS011;6006;49.696;8.662;2022-09-09T13:27:30;3.33;;;0.60;;
11893;SDS011;6006;49.696;8.662;2022-09-09T13:29:59;1.38;;;0.32;;
11893;SDS011;6006;49.696;8.662;2022-09-09T13:32:27;0.60;;;0.30;;
11893;SDS011;6006;49.696;8.662;2022-09-09T13:34:57;2.55;;;0.25;;
11893;SDS011;6006;49.696;8.662;2022-09-09T13:37:27;0.90;;;0.20;;
11893;SDS011;6006;49.696;8.662;2022-09-09T13:39:58;1.75;;;0.47;;
11893;SDS011;6006;49.696;8.662;2022-09-09T13:42:25;2.00;;;0.40;;
11893;SDS011;6006;49.696;8.662;2022-09-09T13:44:56;10.07;;;1.55;;
11893;SDS011;6006;49.696;8.662;2022-09-09T13:47:28;6.18;;;1.20;;
11893;SDS011;6006;49.696;8.662;2022-09-09T13:49:57;4.05;;;0.98;;
11893;SDS011;6006;49.696;8.662;2022-09-09T13:52:24;1.85;;;0.50;;
11893;SDS011;6006;49.696;8.662;2022-09-09T13:54:55;3.72;;;0.80;;
11893;SDS011;6006;49.696;8.662;2022-09-09T13:57:24;2.35;;;0.52;;
11893;SDS011;6006;49.696;8.662;2022-09-09T13:59:53;2.63;;;0.40;;
11893;SDS011;6006;49.696;8.662;2022-09-09T14:02:22;1.33;;;0.38;;
11893;SDS011;6006;49.696;8.662;2022-09-09T14:04:49;0.17;;;0.17;;
11893;SDS011;6006;49.696;8.662;2022-09-09T14:07:20;1.77;;;0.68;;
11893;SDS011;6006;49.696;8.662;2022-09-09T14:09:47;0.20;;;0.20;;
11893;SDS011;6006;49.696;8.662;2022-09-09T14:12:15;0.88;;;0.20;;
11893;SDS011;6006;49.696;8.662;2022-09-09T14:14:43;0.73;;;0.43;;
11893;SDS011;6006;49.696;8.662;2022-09-09T14:17:11;0.38;;;0.35;;
11893;SDS011;6006;49.696;8.662;2022-09-09T14:19:39;1.75;;;0.35;;
11893;SDS011;6006;49.696;8.662;2022-09-09T14:22:06;0.17;;;0.17;;
11893;SDS011;6006;49.696;8.662;2022-09-09T14:24:33;1.52;;;0.50;;
11893;SDS011;6006;49.696;8.662;2022-09-09T14:27:00;0.40;;;0.20;;
11893;SDS011;6006;49.696;8.662;2022-09-09T14:29:27;11.45;;;0.77;;
11893;SDS011;6006;49.696;8.662;2022-09-09T14:31:53;0.20;;;0.20;;
11893;SDS011;6006;49.696;8.662;2022-09-09T14:34:22;0.82;;;0.30;;
11893;SDS011;6006;49.696;8.662;2022-09-09T14:36:48;0.77;;;0.40;;
11893;SDS011;6006;49.696;8.662;2022-09-09T14:39:16;0.70;;;0.38;;
11893;SDS011;6006;49.696;8.662;2022-09-09T14:41:43;3.58;;;0.47;;
11893;SDS011;6006;49.696;8.662;2022-09-09T14:44:10;1.23;;;0.50;;
11893;SDS011;6006;49.696;8.662;2022-09-09T14:46:37;1.33;;;0.40;;
11893;SDS011;6006;49.696;8.662;2022-09-09T14:49:04;0.30;;;0.30;;
11893;SDS011;6006;49.696;8.662;2022-09-09T14:51:33;0.57;;;0.32;;
11893;SDS011;6006;49.696;8.662;2022-09-09T14:53:59;2.40;;;0.40;;
11893;SDS011;6006;49.696;8.662;2022-09-09T14:56:27;4.47;;;0.40;;
11893;SDS011;6006;49.696;8.662;2022-09-09T14:58:56;1.95;;;0.52;;
11893;SDS011;6006;49.696;8.662;2022-09-09T15:01:27;0.70;;;0.40;;
11893;SDS011;6006;49.696;8.662;2022-09-09T15:03:56;1.25;;;0.40;;
11893;SDS011;6006;49.696;8.662;2022-09-09T15:06:24;2.15;;;0.45;;
11893;SDS011;6006;49.696;8.662;2022-09-09T15:08:54;0.55;;;0.32;;
11893;SDS011;6006;49.696;8.662;2022-09-09T15:11:22;0.70;;;0.28;;
11893;SDS011;6006;49.696;8.662;2022-09-09T15:13:50;0.55;;;0.35;;
11893;SDS011;6006;49.696;8.662;2022-09-09T15:16:18;0.47;;;0.30;;
11893;SDS011;6006;49.696;8.662;2022-09-09T15:18:46;2.13;;;0.45;;
11893;SDS011;6006;49.696;8.662;2022-09-09T15:21:17;0.55;;;0.55;;
11893;SDS011;6006;49.696;8.662;2022-09-09T15:23:45;1.10;;;0.60;;
11893;SDS011;6006;49.696;8.662;2022-09-09T15:26:14;3.13;;;0.57;;
11893;SDS011;6006;49.696;8.662;2022-09-09T15:28:42;1.02;;;0.50;;
11893;SDS011;6006;49.696;8.662;2022-09-09T15:31:11;0.85;;;0.30;;
11893;SDS011;6006;49.696;8.662;2022-09-09T15:33:40;2.13;;;0.50;;
11893;SDS011;6006;49.696;8.662;2022-09-09T15:36:15;2.10;;;0.63;;
11893;SDS011;6006;49.696;8.662;2022-09-09T15:38:44;0.40;;;0.40;;
11893;SDS011;6006;49.696;8.662;2022-09-09T15:41:11;1.58;;;0.68;;